Bankston, Alabama
Current Conditions -  °F | °C
As of 2:55 PM on Thursday 20 Nov 2014 (Local Time) from KJFX Reporting Station
Clear Clear  
Wind Chill: 64°   Ceiling: Unl
Heat Index: 64°   Visibility: 10mi
Dew Point: 34°   Wind: 7mph
Humidity: 32%   Direction: 300°WNW
Pressure: 30.2"   Gusts: NA
Location:  33.67°N, 87.67°W
Report Text: KJFX 202055Z AUTO 30006KT 10SM CLR 18/01 A3020 RMK A02 P-128
Loading
Personal Weather Stations






























Interactive Weather Map New forecast layout! Learn more

10-Day Weather Forecast

Advertisements
Track Severe Weather on mobile